createdAt,value
2017-02-26T00:00:26.684Z,7.42
2017-02-26T00:01:26.686Z,7.37
2017-02-26T00:02:26.663Z,7.39
2017-02-26T00:03:26.652Z,7.43
2017-02-26T00:04:26.642Z,7.45
2017-02-26T00:05:26.258Z,7.49
2017-02-26T00:06:26.620Z,7.5
2017-02-26T00:07:26.233Z,7.43
2017-02-26T00:08:26.601Z,7.49
2017-02-26T00:09:26.635Z,7.42
2017-02-26T00:10:26.580Z,7.42
2017-02-26T00:11:26.181Z,7.4
2017-02-26T00:12:26.558Z,7.46
2017-02-26T00:13:26.549Z,7.39
2017-02-26T00:14:26.536Z,7.45
2017-02-26T00:15:26.530Z,7.46
2017-02-26T00:16:26.129Z,7.43
2017-02-26T00:17:26.501Z,7.4
2017-02-26T00:18:26.113Z,7.39
2017-02-26T00:19:26.493Z,7.39
2017-02-26T00:20:26.472Z,7.42
2017-02-26T00:21:26.482Z,7.5
2017-02-26T00:22:26.464Z,7.52
2017-02-26T00:23:26.438Z,7.37
2017-02-26T00:24:26.472Z,7.5
2017-02-26T00:25:26.434Z,7.55
2017-02-26T00:26:26.421Z,7.45
2017-02-26T00:27:26.396Z,7.48
2017-02-26T00:28:26.389Z,7.5
2017-02-26T00:29:26.378Z,7.58
2017-02-26T00:30:25.594Z,7.52
2017-02-26T00:31:26.359Z,7.55
2017-02-26T00:32:26.344Z,7.53
2017-02-26T00:33:26.344Z,7.48
2017-02-26T00:34:26.342Z,7.52
2017-02-26T00:35:26.316Z,7.53
2017-02-26T00:36:26.306Z,7.64
2017-02-26T00:37:25.906Z,7.55
2017-02-26T00:38:26.297Z,7.57
2017-02-26T00:39:26.272Z,7.61
2017-02-26T00:40:26.273Z,7.6
2017-02-26T00:41:25.866Z,7.63
2017-02-26T00:42:26.253Z,7.72
2017-02-26T00:43:25.844Z,7.68
2017-02-26T00:44:26.227Z,7.71
2017-02-26T00:45:25.823Z,7.69
2017-02-26T00:46:26.199Z,7.71
2017-02-26T00:47:26.201Z,7.69
2017-02-26T00:48:25.790Z,7.77
2017-02-26T00:49:26.166Z,7.74
2017-02-26T00:50:25.782Z,7.72
2017-02-26T00:51:26.147Z,7.74
2017-02-26T00:52:25.759Z,7.83
2017-02-26T00:53:26.127Z,7.85
2017-02-26T00:54:26.115Z,7.8
2017-02-26T00:55:26.104Z,7.77
2017-02-26T00:56:25.717Z,7.86
2017-02-26T00:57:25.698Z,7.82
2017-02-26T00:58:26.076Z,7.86
2017-02-26T00:59:26.382Z,7.83
2017-02-26T01:00:26.058Z,7.86
2017-02-26T01:01:25.662Z,7.92
2017-02-26T01:02:26.032Z,7.87
2017-02-26T01:03:26.034Z,7.89
2017-02-26T01:04:26.012Z,7.89
2017-02-26T01:05:26.015Z,7.95
2017-02-26T01:06:25.991Z,7.89
2017-02-26T01:07:26.003Z,7.89
2017-02-26T01:08:25.986Z,7.89
2017-02-26T01:09:25.577Z,7.89
2017-02-26T01:10:25.950Z,7.86
2017-02-26T01:11:25.953Z,8
2017-02-26T01:12:25.545Z,7.98
2017-02-26T01:13:25.931Z,8.05
2017-02-26T01:14:25.910Z,8.07
2017-02-26T01:15:25.913Z,8.04
2017-02-26T01:16:25.897Z,8.04
2017-02-26T01:17:25.885Z,8
2017-02-26T01:18:25.483Z,8.12
2017-02-26T01:19:25.862Z,8.08
2017-02-26T01:20:25.885Z,8.05
2017-02-26T01:21:25.837Z,8.01
2017-02-26T01:22:25.830Z,8.11
2017-02-26T01:23:25.828Z,8.15
2017-02-26T01:24:25.807Z,8.16
2017-02-26T01:25:25.801Z,8.19
2017-02-26T01:26:25.787Z,8.29
2017-02-26T01:27:25.791Z,8.26
2017-02-26T01:28:25.767Z,8.16
2017-02-26T01:29:25.764Z,8.25
2017-02-26T01:30:25.746Z,8.1
2017-02-26T01:31:25.351Z,8.22
2017-02-26T01:32:25.733Z,8.19
2017-02-26T01:33:24.960Z,8.11
2017-02-26T01:34:25.320Z,8.25
2017-02-26T01:35:25.309Z,8.28
2017-02-26T01:36:25.696Z,8.25
2017-02-26T01:37:25.288Z,8.15
2017-02-26T01:38:25.668Z,8.26
2017-02-26T01:39:25.654Z,8.25
2017-02-26T01:40:25.275Z,8.28
2017-02-26T01:41:25.640Z,8.33
2017-02-26T01:42:25.632Z,8.26
2017-02-26T01:43:25.628Z,8.29
2017-02-26T01:44:25.229Z,8.33
2017-02-26T01:45:25.598Z,8.36
2017-02-26T01:46:25.207Z,8.4
2017-02-26T01:47:25.577Z,8.33
2017-02-26T01:48:25.184Z,8.33
2017-02-26T01:49:25.568Z,8.34
2017-02-26T01:50:25.554Z,8.37
2017-02-26T01:51:25.571Z,8.4
2017-02-26T01:52:25.538Z,8.41
2017-02-26T01:53:25.516Z,8.36
2017-02-26T01:54:25.565Z,8.45
2017-02-26T01:55:25.515Z,8.44
2017-02-26T01:56:25.486Z,8.4
2017-02-26T01:57:25.485Z,8.41
2017-02-26T01:58:25.464Z,8.43
2017-02-26T01:59:25.459Z,8.44
2017-02-26T02:00:25.457Z,8.44
2017-02-26T02:01:25.051Z,8.45
2017-02-26T02:02:25.439Z,8.48
2017-02-26T02:03:25.433Z,8.52
2017-02-26T02:04:25.020Z,8.43
2017-02-26T02:05:25.406Z,8.45
2017-02-26T02:06:25.384Z,8.45
2017-02-26T02:07:25.381Z,8.43
2017-02-26T02:08:25.368Z,8.45
2017-02-26T02:09:25.359Z,8.36
2017-02-26T02:10:24.960Z,8.52
2017-02-26T02:11:25.343Z,8.52
2017-02-26T02:12:24.941Z,8.47
2017-02-26T02:13:25.316Z,8.4
2017-02-26T02:14:25.317Z,8.45
2017-02-26T02:15:25.298Z,8.34
2017-02-26T02:16:24.897Z,8.45
2017-02-26T02:17:25.278Z,8.34
2017-02-26T02:18:24.878Z,8.43
2017-02-26T02:19:25.260Z,8.47
2017-02-26T02:20:25.248Z,8.43
2017-02-26T02:21:25.236Z,8.44
2017-02-26T02:22:25.236Z,8.5
2017-02-26T02:23:25.219Z,8.47
2017-02-26T02:24:24.845Z,8.52
2017-02-26T02:25:25.197Z,8.53
2017-02-26T02:26:25.189Z,8.5
2017-02-26T02:27:24.800Z,8.5
2017-02-26T02:28:24.792Z,8.5
2017-02-26T02:29:25.161Z,8.47
2017-02-26T02:30:25.148Z,8.5
2017-02-26T02:31:24.763Z,8.48
2017-02-26T02:32:24.744Z,8.48
2017-02-26T02:33:24.731Z,8.5
2017-02-26T02:34:24.724Z,8.5
2017-02-26T02:35:25.100Z,8.53
2017-02-26T02:36:24.706Z,8.5
2017-02-26T02:37:25.081Z,8.47
2017-02-26T02:38:24.305Z,8.52
2017-02-26T02:39:25.057Z,8.52
2017-02-26T02:40:24.665Z,8.45
2017-02-26T02:41:25.038Z,8.53
2017-02-26T02:42:25.032Z,8.44
2017-02-26T02:43:25.029Z,8.43
2017-02-26T02:44:25.022Z,8.43
2017-02-26T02:45:24.612Z,8.41
2017-02-26T02:46:24.987Z,8.44
2017-02-26T02:47:24.991Z,8.37
2017-02-26T02:48:24.984Z,8.33
2017-02-26T02:49:24.975Z,8.44
2017-02-26T02:50:24.948Z,8.47
2017-02-26T02:51:24.941Z,8.47
2017-02-26T02:52:24.942Z,8.47
2017-02-26T02:53:24.925Z,8.47
2017-02-26T02:54:24.927Z,8.4
2017-02-26T02:55:24.902Z,8.52
2017-02-26T02:56:24.893Z,8.44
2017-02-26T02:57:24.881Z,8.4
2017-02-26T02:58:24.877Z,8.53
2017-02-26T02:59:24.863Z,8.48
2017-02-26T03:00:24.859Z,8.47
2017-02-26T03:01:24.840Z,8.52
2017-02-26T03:02:24.854Z,8.48
2017-02-26T03:03:24.822Z,8.53
2017-02-26T03:04:24.812Z,8.48
2017-02-26T03:05:24.419Z,8.56
2017-02-26T03:06:24.409Z,8.53
2017-02-26T03:07:24.784Z,8.59
2017-02-26T03:08:24.774Z,8.61
2017-02-26T03:09:24.796Z,8.58
2017-02-26T03:10:24.756Z,8.61
2017-02-26T03:11:24.750Z,8.5
2017-02-26T03:12:24.734Z,8.62
2017-02-26T03:13:24.734Z,8.62
2017-02-26T03:14:24.749Z,8.65
2017-02-26T03:15:24.706Z,8.66
2017-02-26T03:16:24.698Z,8.58
2017-02-26T03:17:24.688Z,8.61
2017-02-26T03:18:24.680Z,8.61
2017-02-26T03:19:24.668Z,8.58
2017-02-26T03:20:24.272Z,8.62
2017-02-26T03:21:24.650Z,8.65
2017-02-26T03:22:24.651Z,8.59
2017-02-26T03:23:24.632Z,8.61
2017-02-26T03:24:24.619Z,8.77
2017-02-26T03:25:24.619Z,8.73
2017-02-26T03:26:24.598Z,8.7
2017-02-26T03:27:24.588Z,8.62
2017-02-26T03:28:24.211Z,8.65
2017-02-26T03:29:24.571Z,8.68
2017-02-26T03:30:24.575Z,8.66
2017-02-26T03:31:24.551Z,8.7
2017-02-26T03:32:24.546Z,8.59
2017-02-26T03:33:24.538Z,8.56
2017-02-26T03:34:24.520Z,8.68
2017-02-26T03:35:24.518Z,8.58
2017-02-26T03:36:24.501Z,8.68
2017-02-26T03:37:24.490Z,8.7
2017-02-26T03:38:24.486Z,8.68
2017-02-26T03:39:24.472Z,8.68
2017-02-26T03:40:24.070Z,8.62
2017-02-26T03:41:24.462Z,8.65
2017-02-26T03:42:24.448Z,8.68
2017-02-26T03:43:24.055Z,8.66
2017-02-26T03:44:24.421Z,8.73
2017-02-26T03:45:24.024Z,8.7
2017-02-26T03:46:24.403Z,8.7
2017-02-26T03:47:24.390Z,8.73
2017-02-26T03:48:24.388Z,8.71
2017-02-26T03:49:24.384Z,8.74
2017-02-26T03:50:24.361Z,8.79
2017-02-26T03:51:24.351Z,8.77
2017-02-26T03:52:23.976Z,8.7
2017-02-26T03:53:24.335Z,8.71
2017-02-26T03:54:24.345Z,8.68
2017-02-26T03:55:24.316Z,8.73
2017-02-26T03:56:24.303Z,8.76
2017-02-26T03:57:24.296Z,8.71
2017-02-26T03:58:24.286Z,8.77
2017-02-26T03:59:24.275Z,8.68
2017-02-26T04:00:24.316Z,8.68
2017-02-26T04:01:24.261Z,8.77
2017-02-26T04:02:24.265Z,8.73
2017-02-26T04:03:24.239Z,8.71
2017-02-26T04:04:24.234Z,8.68
2017-02-26T04:05:24.242Z,8.66
2017-02-26T04:06:24.241Z,8.66
2017-02-26T04:07:24.212Z,8.68
2017-02-26T04:08:24.204Z,8.68
2017-02-26T04:09:24.178Z,8.65
2017-02-26T04:10:24.181Z,8.63
2017-02-26T04:11:24.163Z,8.66
2017-02-26T04:12:24.146Z,8.71
2017-02-26T04:13:24.151Z,8.68
2017-02-26T04:14:24.154Z,8.73
2017-02-26T04:15:24.137Z,8.73
2017-02-26T04:16:24.112Z,8.8
2017-02-26T04:17:24.101Z,8.81
2017-02-26T04:18:24.090Z,8.71
2017-02-26T04:19:24.085Z,8.7
2017-02-26T04:20:24.081Z,8.81
2017-02-26T04:21:24.061Z,8.68
2017-02-26T04:22:24.053Z,8.77
2017-02-26T04:23:24.045Z,8.77
2017-02-26T04:24:24.032Z,8.81
2017-02-26T04:25:24.024Z,8.77
2017-02-26T04:26:24.030Z,8.83
2017-02-26T04:27:24.006Z,8.77
2017-02-26T04:28:24.011Z,8.77
2017-02-26T04:29:23.984Z,8.77
2017-02-26T04:30:23.996Z,8.79
2017-02-26T04:31:23.967Z,8.79
2017-02-26T04:32:23.961Z,8.86
2017-02-26T04:33:23.997Z,8.8
2017-02-26T04:34:23.938Z,8.8
2017-02-26T04:35:24.192Z,8.76
2017-02-26T04:36:23.920Z,8.79
2017-02-26T04:37:23.907Z,8.79
2017-02-26T04:38:23.513Z,8.77
2017-02-26T04:39:23.890Z,8.8
2017-02-26T04:40:23.521Z,8.8
2017-02-26T04:41:23.485Z,8.8
2017-02-26T04:42:23.861Z,8.74
2017-02-26T04:43:23.873Z,8.79
2017-02-26T04:44:23.847Z,8.84
2017-02-26T04:45:23.843Z,8.81
2017-02-26T04:46:23.835Z,8.83
2017-02-26T04:47:23.822Z,8.83
2017-02-26T04:48:23.421Z,8.76
2017-02-26T04:49:23.406Z,8.81
2017-02-26T04:50:23.781Z,8.71
2017-02-26T04:51:23.775Z,8.7
2017-02-26T04:52:23.381Z,8.79
2017-02-26T04:53:23.756Z,8.73
2017-02-26T04:54:23.745Z,8.84
2017-02-26T04:55:23.747Z,8.86
2017-02-26T04:56:23.729Z,8.83
2017-02-26T04:57:23.715Z,8.8
2017-02-26T04:58:23.710Z,8.8
2017-02-26T04:59:23.703Z,8.8
2017-02-26T05:00:23.706Z,8.86
2017-02-26T05:01:23.680Z,8.81
2017-02-26T05:02:23.668Z,8.83
2017-02-26T05:03:23.659Z,8.74
2017-02-26T05:04:23.859Z,8.83
2017-02-26T05:05:23.639Z,8.66
2017-02-26T05:06:23.629Z,8.83
2017-02-26T05:07:23.621Z,8.7
2017-02-26T05:08:23.609Z,8.7
2017-02-26T05:09:23.625Z,8.68
2017-02-26T05:10:23.602Z,8.66
2017-02-26T05:11:23.582Z,8.74
2017-02-26T05:12:23.188Z,8.58
2017-02-26T05:13:23.579Z,8.61
2017-02-26T05:14:23.562Z,8.55
2017-02-26T05:15:23.554Z,8.52
2017-02-26T05:16:23.154Z,8.45
2017-02-26T05:17:23.155Z,8.37
2017-02-26T05:18:23.524Z,8.41
2017-02-26T05:19:23.505Z,8.48
2017-02-26T05:20:22.721Z,8.37
2017-02-26T05:21:23.483Z,8.36
2017-02-26T05:22:23.485Z,8.37
2017-02-26T05:23:23.464Z,8.34
2017-02-26T05:24:23.455Z,8.28
2017-02-26T05:25:23.062Z,8.33
2017-02-26T05:26:23.054Z,8.34
2017-02-26T05:27:23.426Z,8.29
2017-02-26T05:28:23.033Z,8.26
2017-02-26T05:29:23.407Z,8.22
2017-02-26T05:30:23.405Z,8.15
2017-02-26T05:31:23.008Z,8.28
2017-02-26T05:32:23.381Z,8.11
2017-02-26T05:33:23.003Z,8.19
2017-02-26T05:34:23.357Z,8.19
2017-02-26T05:35:23.361Z,8.12
2017-02-26T05:36:23.349Z,8.16
2017-02-26T05:37:22.958Z,8.12
2017-02-26T05:38:22.930Z,8.15
2017-02-26T05:39:22.933Z,8.15
2017-02-26T05:40:23.295Z,8.25
2017-02-26T05:41:22.904Z,8.19
2017-02-26T05:42:23.279Z,8.28
2017-02-26T05:43:22.892Z,8.18
2017-02-26T05:44:22.480Z,8.26
2017-02-26T05:45:22.870Z,8.22
2017-02-26T05:46:23.235Z,8.3
2017-02-26T05:47:23.227Z,8.33
2017-02-26T05:48:22.842Z,8.3
2017-02-26T05:49:23.208Z,8.29
2017-02-26T05:50:22.808Z,8.33
2017-02-26T05:51:22.799Z,8.36
2017-02-26T05:52:23.176Z,8.37
2017-02-26T05:53:23.168Z,8.29
2017-02-26T05:54:22.771Z,8.29
2017-02-26T05:55:22.758Z,8.29
2017-02-26T05:56:23.137Z,8.33
2017-02-26T05:57:23.147Z,8.34
2017-02-26T05:58:23.116Z,8.41
2017-02-26T05:59:23.113Z,8.36
2017-02-26T06:00:22.718Z,8.38
2017-02-26T06:01:23.088Z,8.44
2017-02-26T06:02:23.090Z,8.38
2017-02-26T06:03:23.069Z,8.43
2017-02-26T06:04:23.057Z,8.36
2017-02-26T06:05:23.049Z,8.34
2017-02-26T06:06:23.053Z,8.43
2017-02-26T06:07:22.649Z,8.43
2017-02-26T06:08:23.019Z,8.45
2017-02-26T06:09:23.019Z,8.47
2017-02-26T06:10:23.002Z,8.52
2017-02-26T06:11:22.604Z,8.41
2017-02-26T06:12:22.978Z,8.48
2017-02-26T06:13:22.975Z,8.48
2017-02-26T06:14:22.957Z,8.5
2017-02-26T06:15:22.952Z,8.53
2017-02-26T06:16:22.940Z,8.52
2017-02-26T06:17:22.947Z,8.59
2017-02-26T06:18:22.938Z,8.55
2017-02-26T06:19:22.929Z,8.53
2017-02-26T06:20:22.912Z,8.59
2017-02-26T06:21:22.909Z,8.53
2017-02-26T06:22:22.877Z,8.53
2017-02-26T06:23:22.485Z,8.55
2017-02-26T06:24:22.859Z,8.52
2017-02-26T06:25:22.865Z,8.55
2017-02-26T06:26:22.840Z,8.56
2017-02-26T06:27:22.845Z,8.52
2017-02-26T06:28:22.823Z,8.53
2017-02-26T06:29:22.826Z,8.55
2017-02-26T06:30:22.852Z,8.58
2017-02-26T06:31:22.807Z,8.59
2017-02-26T06:32:22.781Z,8.59
2017-02-26T06:33:22.789Z,8.56
2017-02-26T06:34:22.761Z,8.55
2017-02-26T06:35:22.763Z,8.66
2017-02-26T06:36:22.755Z,8.62
2017-02-26T06:37:22.734Z,8.58
2017-02-26T06:38:22.725Z,8.65
2017-02-26T06:39:22.722Z,8.74
2017-02-26T06:40:22.705Z,8.68
2017-02-26T06:41:22.699Z,8.74
2017-02-26T06:42:22.694Z,8.71
2017-02-26T06:43:22.693Z,8.77
2017-02-26T06:44:22.664Z,8.68
2017-02-26T06:45:22.654Z,8.7
2017-02-26T06:46:22.654Z,8.71
2017-02-26T06:47:22.254Z,8.71
2017-02-26T06:48:22.628Z,8.84
2017-02-26T06:49:22.614Z,8.73
2017-02-26T06:50:22.607Z,8.74
2017-02-26T06:51:22.594Z,8.7
2017-02-26T06:52:22.605Z,8.73
2017-02-26T06:53:22.587Z,8.8
2017-02-26T06:54:22.188Z,8.8
2017-02-26T06:55:22.573Z,8.89
2017-02-26T06:56:22.552Z,8.84
2017-02-26T06:57:22.154Z,8.89
2017-02-26T06:58:22.537Z,8.87
2017-02-26T06:59:22.530Z,8.87
2017-02-26T07:00:22.510Z,8.87
2017-02-26T07:01:22.503Z,8.91
2017-02-26T07:02:22.490Z,8.95
2017-02-26T07:03:22.488Z,8.91
2017-02-26T07:04:22.100Z,8.91
2017-02-26T07:05:22.084Z,9.01
2017-02-26T07:06:22.463Z,8.94
2017-02-26T07:07:22.442Z,8.96
2017-02-26T07:08:22.443Z,8.96
2017-02-26T07:09:22.423Z,8.99
2017-02-26T07:10:22.044Z,8.99
2017-02-26T07:11:22.408Z,9.04
2017-02-26T07:12:22.394Z,9.05
2017-02-26T07:13:22.003Z,9.04
2017-02-26T07:14:22.002Z,9.02
2017-02-26T07:15:22.366Z,9.14
2017-02-26T07:16:22.378Z,9.2
2017-02-26T07:17:22.350Z,9.1
2017-02-26T07:18:21.957Z,9.21
2017-02-26T07:19:21.967Z,9.17
2017-02-26T07:20:22.374Z,9.15
2017-02-26T07:21:21.925Z,9.21
2017-02-26T07:22:22.306Z,9.28
2017-02-26T07:23:22.304Z,9.35
2017-02-26T07:24:22.323Z,9.23
2017-02-26T07:25:22.274Z,9.28
2017-02-26T07:26:22.287Z,9.33
2017-02-26T07:27:22.255Z,9.29
2017-02-26T07:28:21.477Z,9.29
2017-02-26T07:29:22.275Z,9.31
2017-02-26T07:30:22.239Z,9.32
2017-02-26T07:31:22.219Z,9.32
2017-02-26T07:32:22.210Z,9.38
2017-02-26T07:33:22.200Z,9.36
2017-02-26T07:34:22.195Z,9.4
2017-02-26T07:35:22.199Z,9.42
2017-02-26T07:36:22.177Z,9.4
2017-02-26T07:37:22.172Z,9.35
2017-02-26T07:38:22.159Z,9.43
2017-02-26T07:39:22.153Z,9.43
2017-02-26T07:40:22.138Z,9.35
2017-02-26T07:41:21.744Z,9.43
2017-02-26T07:42:22.120Z,9.46
2017-02-26T07:43:22.117Z,9.38
2017-02-26T07:44:22.107Z,9.39
2017-02-26T07:45:22.095Z,9.43
2017-02-26T07:46:22.094Z,9.46
2017-02-26T07:47:22.076Z,9.46
2017-02-26T07:48:22.086Z,9.43
2017-02-26T07:49:21.670Z,9.4
2017-02-26T07:50:22.057Z,9.39
2017-02-26T07:51:21.651Z,9.47
2017-02-26T07:52:21.653Z,9.4
2017-02-26T07:53:21.635Z,9.32
2017-02-26T07:54:21.626Z,9.36
2017-02-26T07:55:22.001Z,9.35
2017-02-26T07:56:22.012Z,9.38
2017-02-26T07:57:22.002Z,9.36
2017-02-26T07:58:21.984Z,9.35
2017-02-26T07:59:21.966Z,9.35
2017-02-26T08:00:21.970Z,9.35
2017-02-26T08:01:21.568Z,9.31
2017-02-26T08:02:21.950Z,9.31
2017-02-26T08:03:21.931Z,9.32
2017-02-26T08:04:21.919Z,9.33
2017-02-26T08:05:21.913Z,9.23
2017-02-26T08:06:21.916Z,9.38
2017-02-26T08:07:21.897Z,9.28
2017-02-26T08:08:21.883Z,9.31
2017-02-26T08:09:21.892Z,9.31
2017-02-26T08:10:21.870Z,9.32
2017-02-26T08:11:21.859Z,9.32
2017-02-26T08:12:21.856Z,9.35
2017-02-26T08:13:21.842Z,9.35
2017-02-26T08:14:21.832Z,9.29
2017-02-26T08:15:21.836Z,9.42
2017-02-26T08:16:21.434Z,9.46
2017-02-26T08:17:21.803Z,9.5
2017-02-26T08:18:21.796Z,9.53
2017-02-26T08:19:21.787Z,9.64
2017-02-26T08:20:21.774Z,9.69
2017-02-26T08:21:21.767Z,9.65
2017-02-26T08:22:21.762Z,9.71
2017-02-26T08:23:21.760Z,9.75
2017-02-26T08:24:21.751Z,9.81
2017-02-26T08:25:21.734Z,9.87
2017-02-26T08:26:21.737Z,9.86
2017-02-26T08:27:21.732Z,9.84
2017-02-26T08:28:21.712Z,9.84
2017-02-26T08:29:21.709Z,9.79
2017-02-26T08:30:21.701Z,9.83
2017-02-26T08:31:21.685Z,9.84
2017-02-26T08:32:21.677Z,9.84
2017-02-26T08:33:21.674Z,9.9
2017-02-26T08:34:21.658Z,9.99
2017-02-26T08:35:21.664Z,10.05
2017-02-26T08:36:21.656Z,10.11
2017-02-26T08:37:21.630Z,10.09
2017-02-26T08:38:21.627Z,10.11
2017-02-26T08:39:21.615Z,10.11
2017-02-26T08:40:21.609Z,10.07
2017-02-26T08:41:21.599Z,10.07
2017-02-26T08:42:21.592Z,10.09
2017-02-26T08:43:21.581Z,10.07
2017-02-26T08:44:21.572Z,10.08
2017-02-26T08:45:21.566Z,10.08
2017-02-26T08:46:21.575Z,10.12
2017-02-26T08:47:21.554Z,10.05
2017-02-26T08:48:21.164Z,10.04
2017-02-26T08:49:21.535Z,10.14
2017-02-26T08:50:21.526Z,10.05
2017-02-26T08:51:21.563Z,10.11
2017-02-26T08:52:21.508Z,10.08
2017-02-26T08:53:21.120Z,10.11
2017-02-26T08:54:21.496Z,10.2
2017-02-26T08:55:21.504Z,10.2
2017-02-26T08:56:21.473Z,10.29
2017-02-26T08:57:21.485Z,10.34
2017-02-26T08:58:21.467Z,10.33
2017-02-26T08:59:21.480Z,10.33
2017-02-26T09:00:21.460Z,10.33
2017-02-26T09:01:21.448Z,10.34
2017-02-26T09:02:21.428Z,10.4
2017-02-26T09:03:21.423Z,10.42
2017-02-26T09:04:21.418Z,10.55
2017-02-26T09:05:21.406Z,10.63
2017-02-26T09:06:21.396Z,10.66
2017-02-26T09:07:21.402Z,10.67
2017-02-26T09:08:21.381Z,10.79
2017-02-26T09:09:21.377Z,10.84
2017-02-26T09:10:21.377Z,11
2017-02-26T09:11:21.379Z,11
2017-02-26T09:12:21.368Z,11.07
2017-02-26T09:13:21.347Z,10.89
2017-02-26T09:14:21.380Z,11.02
2017-02-26T09:15:21.335Z,11.09
2017-02-26T09:16:21.338Z,11.07
2017-02-26T09:17:21.312Z,11.06
2017-02-26T09:18:21.315Z,11.09
2017-02-26T09:19:21.321Z,11.07
2017-02-26T09:20:21.337Z,11.07
2017-02-26T09:21:21.285Z,11.14
2017-02-26T09:22:21.280Z,11.17
2017-02-26T09:23:21.291Z,11.17
2017-02-26T09:24:21.271Z,11.18
2017-02-26T09:25:21.277Z,11.09
2017-02-26T09:26:20.868Z,11.06
2017-02-26T09:27:21.250Z,11.09
2017-02-26T09:28:20.867Z,11.1
2017-02-26T09:29:21.242Z,11.17
2017-02-26T09:30:21.222Z,11.07
2017-02-26T09:31:21.213Z,11.22
2017-02-26T09:32:21.226Z,11.17
2017-02-26T09:33:20.834Z,11.27
2017-02-26T09:34:21.216Z,11.19
2017-02-26T09:35:21.198Z,11.28
2017-02-26T09:36:21.179Z,11.24
2017-02-26T09:37:21.168Z,11.25
2017-02-26T09:38:21.167Z,11.25
2017-02-26T09:39:20.768Z,11.17
2017-02-26T09:40:21.152Z,11.21
2017-02-26T09:41:21.148Z,11.17
2017-02-26T09:42:21.140Z,11.25
2017-02-26T09:43:20.746Z,11.17
2017-02-26T09:44:21.121Z,11.19
2017-02-26T09:45:21.111Z,11.19
2017-02-26T09:46:21.126Z,11.28
2017-02-26T09:47:21.098Z,11.25
2017-02-26T09:48:20.711Z,11.22
2017-02-26T09:49:21.100Z,11.29
2017-02-26T09:50:21.083Z,11.36
2017-02-26T09:51:21.069Z,11.4
2017-02-26T09:52:21.098Z,11.39
2017-02-26T09:53:21.056Z,11.46
2017-02-26T09:54:21.055Z,11.54
2017-02-26T09:55:20.660Z,11.55
2017-02-26T09:56:21.032Z,11.57
2017-02-26T09:57:21.026Z,11.55
2017-02-26T09:58:21.020Z,11.64
2017-02-26T09:59:21.020Z,11.64
2017-02-26T10:00:21.027Z,11.7
2017-02-26T10:01:21.003Z,11.72
2017-02-26T10:02:20.994Z,11.67
2017-02-26T10:03:20.988Z,11.55
2017-02-26T10:04:20.997Z,11.54
2017-02-26T10:05:20.979Z,11.35
2017-02-26T10:06:20.963Z,11.28
2017-02-26T10:07:20.958Z,11.21
2017-02-26T10:08:20.952Z,11.25
2017-02-26T10:09:20.951Z,11.27
2017-02-26T10:10:20.967Z,11.25
2017-02-26T10:11:20.931Z,11.22
2017-02-26T10:12:20.936Z,11.28
2017-02-26T10:13:20.142Z,11.24
2017-02-26T10:14:20.905Z,11.25
2017-02-26T10:15:20.518Z,11.22
2017-02-26T10:16:20.893Z,11.29
2017-02-26T10:17:20.502Z,11.35
2017-02-26T10:18:20.880Z,11.19
2017-02-26T10:19:20.880Z,11.29
2017-02-26T10:20:20.867Z,11.35
2017-02-26T10:21:20.857Z,11.37
2017-02-26T10:22:20.870Z,11.4
2017-02-26T10:23:20.859Z,11.47
2017-02-26T10:24:20.874Z,11.47
2017-02-26T10:25:20.829Z,11.54
2017-02-26T10:26:20.844Z,11.6
2017-02-26T10:27:20.815Z,11.55
2017-02-26T10:28:20.808Z,11.57
2017-02-26T10:29:20.803Z,11.6
2017-02-26T10:30:20.805Z,11.58
2017-02-26T10:31:20.818Z,11.64
2017-02-26T10:32:20.779Z,11.65
2017-02-26T10:33:20.778Z,11.57
2017-02-26T10:34:20.764Z,11.65
2017-02-26T10:35:20.760Z,11.65
2017-02-26T10:36:20.750Z,11.75
2017-02-26T10:37:20.746Z,11.7
2017-02-26T10:38:20.740Z,11.69
2017-02-26T10:39:20.743Z,11.82
2017-02-26T10:40:20.724Z,11.76
2017-02-26T10:41:20.716Z,11.88
2017-02-26T10:42:20.723Z,11.96
2017-02-26T10:43:20.317Z,11.86
2017-02-26T10:44:20.700Z,11.94
2017-02-26T10:45:20.704Z,11.95
2017-02-26T10:46:20.693Z,11.96
2017-02-26T10:47:20.290Z,11.99
2017-02-26T10:48:20.286Z,12.04
2017-02-26T10:49:20.669Z,12.01
2017-02-26T10:50:20.658Z,12.01
2017-02-26T10:51:20.268Z,12.1
2017-02-26T10:52:20.652Z,12.01
2017-02-26T10:53:20.645Z,12.09
2017-02-26T10:54:20.631Z,12.1
2017-02-26T10:55:20.632Z,12.19
2017-02-26T10:56:20.616Z,12.23
2017-02-26T10:57:20.618Z,12.29
2017-02-26T10:58:20.603Z,12.31
2017-02-26T10:59:20.596Z,12.32
2017-02-26T11:00:20.591Z,12.31
2017-02-26T11:01:20.590Z,12.29
2017-02-26T11:02:20.211Z,12.31
2017-02-26T11:03:20.583Z,12.31
2017-02-26T11:04:20.593Z,12.35
2017-02-26T11:05:20.554Z,12.32
2017-02-26T11:06:20.570Z,12.34
2017-02-26T11:07:20.544Z,12.31
2017-02-26T11:08:20.547Z,12.32
2017-02-26T11:09:20.548Z,12.27
2017-02-26T11:10:20.542Z,12.29
2017-02-26T11:11:20.563Z,12.14
2017-02-26T11:12:20.524Z,12.17
2017-02-26T11:13:20.510Z,12.13
2017-02-26T11:14:20.523Z,12.14
2017-02-26T11:15:20.510Z,12.28
2017-02-26T11:16:20.489Z,12.37
2017-02-26T11:17:20.496Z,12.24
2017-02-26T11:18:20.508Z,12.39
2017-02-26T11:19:20.468Z,12.38
2017-02-26T11:20:20.479Z,12.49
2017-02-26T11:21:20.453Z,12.53
2017-02-26T11:22:20.496Z,12.56
2017-02-26T11:23:20.443Z,12.65
2017-02-26T11:24:20.437Z,12.64
2017-02-26T11:25:20.441Z,12.62
2017-02-26T11:26:20.433Z,12.59
2017-02-26T11:27:20.415Z,12.57
2017-02-26T11:28:20.437Z,12.57
2017-02-26T11:29:20.409Z,12.53
2017-02-26T11:30:20.410Z,12.54
2017-02-26T11:31:20.391Z,12.49
2017-02-26T11:32:20.387Z,12.46
2017-02-26T11:33:20.384Z,12.46
2017-02-26T11:34:20.379Z,12.34
2017-02-26T11:35:20.368Z,12.39
2017-02-26T11:36:20.361Z,12.28
2017-02-26T11:37:20.354Z,12.29
2017-02-26T11:38:20.354Z,12.29
2017-02-26T11:39:20.347Z,12.31
2017-02-26T11:40:20.365Z,12.32
2017-02-26T11:41:20.334Z,12.37
2017-02-26T11:42:20.336Z,12.32
2017-02-26T11:43:19.929Z,12.42
2017-02-26T11:44:20.317Z,12.46
2017-02-26T11:45:20.308Z,12.45
2017-02-26T11:46:20.295Z,12.42
2017-02-26T11:47:20.308Z,12.41
2017-02-26T11:48:20.284Z,12.52
2017-02-26T11:49:20.279Z,12.59
2017-02-26T11:50:20.291Z,12.68
2017-02-26T11:51:20.290Z,12.74
2017-02-26T11:52:20.261Z,12.74
2017-02-26T11:53:20.253Z,12.79
2017-02-26T11:54:20.258Z,12.87
2017-02-26T11:55:20.263Z,13
2017-02-26T11:56:20.236Z,12.97
2017-02-26T11:57:20.236Z,13.05
2017-02-26T11:58:20.226Z,13.01
2017-02-26T11:59:20.226Z,13.01
2017-02-26T12:00:20.215Z,13.01
2017-02-26T12:01:20.210Z,13.03
2017-02-26T12:02:20.209Z,13.03
2017-02-26T12:03:20.195Z,13.11
2017-02-26T12:04:20.191Z,13.25
2017-02-26T12:05:20.209Z,13.19
2017-02-26T12:06:20.185Z,13.23
2017-02-26T12:07:20.175Z,13.36
2017-02-26T12:08:20.174Z,13.39
2017-02-26T12:09:20.161Z,13.44
2017-02-26T12:10:20.154Z,13.41
2017-02-26T12:11:20.148Z,13.48
2017-02-26T12:12:20.143Z,13.54
2017-02-26T12:13:20.154Z,13.51
2017-02-26T12:14:19.754Z,13.48
2017-02-26T12:15:20.125Z,13.52
2017-02-26T12:16:20.132Z,13.55
2017-02-26T12:17:20.116Z,13.52
2017-02-26T12:18:19.733Z,13.52
2017-02-26T12:19:20.106Z,13.57
2017-02-26T12:20:20.104Z,13.59
2017-02-26T12:21:20.098Z,13.62
2017-02-26T12:22:20.089Z,13.66
2017-02-26T12:23:20.084Z,13.69
2017-02-26T12:24:20.088Z,13.75
2017-02-26T12:25:19.691Z,13.71
2017-02-26T12:26:20.077Z,13.84
2017-02-26T12:27:20.066Z,13.99
2017-02-26T12:28:20.057Z,14.09
2017-02-26T12:29:20.054Z,14.14
2017-02-26T12:30:20.048Z,14.12
2017-02-26T12:31:20.052Z,14.14
2017-02-26T12:32:19.663Z,14.18
2017-02-26T12:33:20.033Z,14.14
2017-02-26T12:34:19.664Z,14.21
2017-02-26T12:35:20.035Z,14.15
2017-02-26T12:36:20.023Z,14.17
2017-02-26T12:37:20.014Z,14.21
2017-02-26T12:38:20.013Z,14.18
2017-02-26T12:39:20.003Z,14.28
2017-02-26T12:40:20.007Z,14.33
2017-02-26T12:41:20.009Z,14.29
2017-02-26T12:42:20.000Z,14.28
2017-02-26T12:43:19.989Z,14.32
2017-02-26T12:44:19.977Z,14.27
2017-02-26T12:45:19.587Z,14.22
2017-02-26T12:46:20.007Z,14.17
2017-02-26T12:47:19.976Z,14.14
2017-02-26T12:48:19.969Z,14.2
2017-02-26T12:49:19.954Z,14.18
2017-02-26T12:50:19.965Z,14.25
2017-02-26T12:51:19.960Z,14.22
2017-02-26T12:52:19.943Z,14.21
2017-02-26T12:53:19.941Z,14.25
2017-02-26T12:54:19.932Z,14.25
2017-02-26T12:55:19.935Z,14.24
2017-02-26T12:56:19.535Z,14.2
2017-02-26T12:57:19.918Z,14.2
2017-02-26T12:58:19.915Z,14.24
2017-02-26T12:59:19.916Z,14.28
2017-02-26T13:00:19.901Z,14.29
2017-02-26T13:01:19.897Z,14.25
2017-02-26T13:02:19.892Z,14.4
2017-02-26T13:03:19.502Z,14.39
2017-02-26T13:04:19.883Z,14.37
2017-02-26T13:05:19.898Z,14.54
2017-02-26T13:06:19.876Z,14.64
2017-02-26T13:07:20.118Z,14.54
2017-02-26T13:08:19.888Z,14.52
2017-02-26T13:09:19.869Z,14.57
2017-02-26T13:10:19.856Z,14.42
2017-02-26T13:11:19.850Z,14.27
2017-02-26T13:12:20.192Z,14.28